Time;durP1;ratioP1;P1;durP2;ratioP2;P2;SDS_P1;SDS_P2;PMS_P1;PMS_P2;Temp;Humidity;BMP_temperature;BMP_pressure;BME280_temperature;BME280_humidity;BME280_pressure;Samples;Min_cycle;Max_cycle;Signal;HPM_P1;HPM_P2
2022/01/29 00:01:56;;;;;;;6.13;2.03;;;;;;;5.38;40.41;98063.69;5091071;28;20047;-70
2022/01/29 00:04:21;;;;;;;4.33;2.10;;;;;;;5.33;40.03;98066.81;5073983;28;20033;-70
2022/01/29 00:06:47;;;;;;;5.53;2.83;;;;;;;5.41;40.33;98058.94;5090642;28;20040;-71
2022/01/29 00:09:15;;;;;;;5.70;2.93;;;;;;;5.42;40.11;98054.47;5057216;28;20036;-70
2022/01/29 00:11:45;;;;;;;9.57;3.80;;;;;;;5.73;40.12;98024.69;5092200;28;20039;-71
2022/01/29 00:14:11;;;;;;;8.37;3.20;;;;;;;5.53;39.96;98052.34;5092702;28;20491;-70
2022/01/29 00:16:37;;;;;;;8.50;2.80;;;;;;;5.54;39.97;98053.16;5092786;28;20452;-70
2022/01/29 00:19:05;;;;;;;7.03;3.27;;;;;;;5.50;40.04;98055.31;5076033;28;20046;-71
2022/01/29 00:21:30;;;;;;;7.73;3.30;;;;;;;5.20;40.03;98042.78;5059421;28;20533;-70
2022/01/29 00:23:56;;;;;;;10.20;4.20;;;;;;;5.38;40.15;98042.63;5076010;28;20079;-71
2022/01/29 00:26:24;;;;;;;4.13;2.50;;;;;;;5.37;40.17;98038.34;5075927;28;20063;-72
2022/01/29 00:28:52;;;;;;;6.90;3.40;;;;;;;5.36;40.06;98048.06;5091418;28;20530;-71
2022/01/29 00:31:18;;;;;;;14.00;3.90;;;;;;;5.19;40.19;98044.59;5075230;28;20467;-71
2022/01/29 00:33:45;;;;;;;10.17;3.80;;;;;;;5.38;40.25;98061.91;5058044;28;20134;-71
2022/01/29 00:36:10;;;;;;;5.80;2.70;;;;;;;5.26;40.31;98034.22;5108453;28;20031;-71
2022/01/29 00:38:36;;;;;;;8.47;3.07;;;;;;;5.31;40.25;98050.38;5092709;28;20410;-71
2022/01/29 00:41:03;;;;;;;4.53;2.30;;;;;;;5.49;40.25;98051.00;5110165;28;20414;-71
2022/01/29 00:43:29;;;;;;;5.93;2.47;;;;;;;5.29;40.25;98030.47;5091691;28;20085;-71
2022/01/29 00:45:55;;;;;;;9.07;3.30;;;;;;;5.33;40.35;98031.78;5107410;28;20043;-71
2022/01/29 00:48:20;;;;;;;5.93;2.33;;;;;;;5.38;40.34;98043.47;5090386;28;20042;-71
2022/01/29 00:50:46;;;;;;;12.03;4.33;;;;;;;5.07;40.50;98039.81;5090006;28;20084;-71
2022/01/29 00:53:12;;;;;;;9.00;4.10;;;;;;;5.16;40.79;98041.47;5107502;28;20127;-70
2022/01/29 00:55:41;;;;;;;12.53;4.77;;;;;;;4.66;40.63;97982.84;5090733;28;20133;-71
2022/01/29 00:58:07;;;;;;;9.53;3.43;;;;;;;4.95;40.54;98006.94;5110535;28;20118;-70
2022/01/29 01:00:33;;;;;;;5.03;2.57;;;;;;;4.95;40.65;98028.78;5096752;28;20043;-71
2022/01/29 01:02:59;;;;;;;13.93;5.53;;;;;;;4.88;40.78;98009.38;5113791;28;20039;-72
2022/01/29 01:05:25;;;;;;;3.50;1.47;;;;;;;5.18;40.77;98050.84;5096732;28;20112;-70
2022/01/29 01:07:51;;;;;;;11.73;3.73;;;;;;;5.15;40.21;98040.63;5113433;28;20070;-70
2022/01/29 01:10:16;;;;;;;5.53;1.27;;;;;;;5.34;40.17;98042.13;5096785;28;20534;-71
2022/01/29 01:12:42;;;;;;;5.40;2.17;;;;;;;5.32;40.37;98038.03;5113559;28;20043;-70
2022/01/29 01:15:09;;;;;;;7.67;3.43;;;;;;;5.50;40.30;98044.78;5113576;28;20059;-70
2022/01/29 01:17:35;;;;;;;4.47;2.10;;;;;;;5.35;40.49;98033.25;5114637;28;20142;-71
2022/01/29 01:20:01;;;;;;;3.53;1.87;;;;;;;5.41;40.31;98037.03;5079644;28;20476;-70
2022/01/29 01:22:27;;;;;;;6.30;2.87;;;;;;;5.51;40.30;98049.06;5096310;28;20050;-70
2022/01/29 01:24:52;;;;;;;16.97;3.67;;;;;;;5.46;39.99;98045.28;5096081;28;20039;-70
2022/01/29 01:27:18;;;;;;;9.93;2.53;;;;;;;5.42;40.09;98047.41;5079549;28;20082;-70
2022/01/29 01:29:44;;;;;;;12.50;5.00;;;;;;;5.30;40.01;98043.47;5062794;28;20048;-69
2022/01/29 01:32:11;;;;;;;3.33;2.03;;;;;;;5.17;40.85;98043.94;5113164;28;20452;-70
2022/01/29 01:34:42;;;;;;;11.80;3.73;;;;;;;5.38;40.46;98040.84;5062559;28;20074;-70
2022/01/29 01:37:13;;;;;;;6.43;2.57;;;;;;;5.17;40.57;98045.75;5114102;28;20086;-70
2022/01/29 01:39:41;;;;;;;3.83;2.25;;;;;;;5.16;40.70;98041.47;5096708;28;20076;-69
2022/01/29 01:42:08;;;;;;;4.43;2.50;;;;;;;5.15;40.84;98047.72;5112714;28;20411;-71
2022/01/29 01:44:45;;;;;;;10.80;3.87;;;;;;;5.58;40.74;98038.69;5079238;28;20040;-69
2022/01/29 01:47:11;;;;;;;1.57;1.10;;;;;;;5.38;40.92;98046.09;5096159;28;20071;-70
2022/01/29 01:49:37;;;;;;;11.97;3.50;;;;;;;5.29;40.67;98041.78;5078827;28;20031;-70
2022/01/29 01:52:05;;;;;;;4.17;1.47;;;;;;;5.36;40.72;98015.66;5095906;28;20488;-70
2022/01/29 01:54:32;;;;;;;2.67;1.70;;;;;;;5.52;40.88;98049.88;5112979;28;20514;-70
2022/01/29 01:57:00;;;;;;;7.63;2.40;;;;;;;5.59;40.58;98042.97;5113941;28;20037;-69
2022/01/29 01:59:27;;;;;;;9.10;3.20;;;;;;;5.48;40.57;98043.28;5112640;28;20558;-69
2022/01/29 02:01:53;;;;;;;7.47;3.33;;;;;;;5.33;40.66;98029.97;5112267;28;20513;-70
2022/01/29 02:04:19;;;;;;;8.07;3.70;;;;;;;5.36;40.54;98048.06;5112587;28;20039;-69
2022/01/29 02:06:46;;;;;;;4.87;2.10;;;;;;;5.74;40.56;98036.03;5095431;28;20448;-70
2022/01/29 02:09:14;;;;;;;9.13;3.23;;;;;;;5.48;40.46;98030.13;5094193;28;20039;-69
2022/01/29 02:11:55;;;;;;;2.53;1.70;;;;;;;5.82;40.36;98002.63;5113441;28;20424;-70
2022/01/29 02:14:26;;;;;;;;;;;;;;;6.31;39.87;98048.94;5113037;28;20054;-70
2022/01/29 02:16:52;;;;;;;2.25;1.50;;;;;;;5.33;40.15;98056.28;5111883;28;19920;-70
2022/01/29 02:19:18;;;;;;;4.03;2.47;;;;;;;5.49;40.86;98051.00;5078269;28;20039;-70
2022/01/29 02:21:44;;;;;;;1.40;1.27;;;;;;;5.48;40.90;98038.84;5112151;28;20043;-69
2022/01/29 02:24:10;;;;;;;2.33;1.27;;;;;;;5.60;40.90;98036.69;5112093;28;20036;-69
2022/01/29 02:26:35;;;;;;;4.70;2.90;;;;;;;5.64;40.74;98032.75;5112325;28;20044;-70
2022/01/29 02:29:01;;;;;;;10.80;4.23;;;;;;;5.38;40.87;98001.34;5078114;28;20628;-71
2022/01/29 02:31:27;;;;;;;2.80;1.93;;;;;;;5.63;40.81;98024.03;5061592;28;20456;-70
2022/01/29 02:33:53;;;;;;;5.63;2.90;;;;;;;5.74;40.91;98033.38;5095030;28;20064;-69
2022/01/29 02:36:19;;;;;;;5.43;2.27;;;;;;;5.69;41.03;98030.44;5094853;28;20081;-70
2022/01/29 02:38:45;;;;;;;1.43;1.33;;;;;;;5.76;40.96;98040.16;5078088;28;20085;-71
2022/01/29 02:41:10;;;;;;;2.60;1.70;;;;;;;5.85;40.93;98036.53;5111720;28;20058;-71
2022/01/29 02:44:03;;;;;;;3.77;2.40;;;;;;;6.07;40.73;98001.59;5112412;28;20042;-70
2022/01/29 02:46:31;;;;;;;4.50;2.10;;;;;;;6.00;40.51;98026.97;5094541;28;20063;-71
2022/01/29 02:48:57;;;;;;;5.53;3.10;;;;;;;6.01;40.32;98025.97;5095128;28;20048;-70
2022/01/29 02:51:23;;;;;;;5.47;2.93;;;;;;;6.37;40.37;98044.78;5111781;28;20028;-72
2022/01/29 02:53:49;;;;;;;8.53;3.97;;;;;;;6.18;40.62;98035.47;5111947;28;20511;-71
2022/01/29 02:56:15;;;;;;;2.20;1.97;;;;;;;6.22;40.55;98036.78;5111330;28;20134;-71
2022/01/29 02:58:41;;;;;;;4.30;2.20;;;;;;;6.23;40.70;98030.50;5111522;28;20039;-72
2022/01/29 03:01:07;;;;;;;3.13;1.93;;;;;;;6.49;40.68;98035.53;5094868;28;20453;-70
2022/01/29 03:03:33;;;;;;;2.67;1.73;;;;;;;6.40;40.43;98045.28;5077474;28;20487;-69
2022/01/29 03:06:02;;;;;;;5.73;2.20;;;;;;;6.50;40.38;98053.81;5111238;28;20075;-69
2022/01/29 03:08:28;;;;;;;4.73;2.67;;;;;;;6.36;40.44;98041.34;5094769;28;20135;-70
2022/01/29 03:10:54;;;;;;;3.20;2.07;;;;;;;6.30;40.79;98042.03;5094094;28;20128;-69
2022/01/29 03:13:19;;;;;;;2.73;1.60;;;;;;;6.44;40.51;98054.50;5111102;28;20051;-70
2022/01/29 03:15:45;;;;;;;1.83;1.33;;;;;;;6.40;40.55;98041.81;5093703;28;20040;-70
2022/01/29 03:18:11;;;;;;;2.73;1.80;;;;;;;6.53;40.61;98053.47;5094278;28;20035;-71
2022/01/29 03:20:37;;;;;;;2.63;2.07;;;;;;;6.36;40.45;98024.72;5093920;28;20074;-70
2022/01/29 03:23:02;;;;;;;4.63;2.90;;;;;;;6.59;40.54;98055.44;5110915;28;20048;-71
2022/01/29 03:25:28;;;;;;;3.57;2.07;;;;;;;6.53;40.23;98037.63;5110915;28;20044;-69
2022/01/29 03:27:54;;;;;;;2.70;1.67;;;;;;;6.64;40.40;98049.66;5075878;28;20195;-70
2022/01/29 03:30:20;;;;;;;4.60;2.83;;;;;;;6.73;40.32;98056.53;5075030;28;20457;-71
2022/01/29 03:32:45;;;;;;;3.17;2.37;;;;;;;6.71;40.15;98058.50;5109543;28;20048;-70
2022/01/29 03:35:12;;;;;;;4.23;2.57;;;;;;;6.76;40.40;98062.25;5093802;28;20040;-73
2022/01/29 03:37:38;;;;;;;5.00;2.27;;;;;;;6.82;40.45;98053.69;5060189;28;20169;-71
2022/01/29 03:40:06;;;;;;;3.10;1.93;;;;;;;6.72;40.53;98018.75;5093475;28;20142;-72
2022/01/29 03:42:38;;;;;;;4.03;2.37;;;;;;;6.92;39.97;98048.16;5076853;28;20864;-73
2022/01/29 03:45:07;;;;;;;2.43;1.60;;;;;;;6.97;40.50;98042.38;5111143;28;20053;-73
2022/01/29 03:47:33;;;;;;;3.27;2.27;;;;;;;6.95;40.12;98052.28;5093404;28;20751;-72
2022/01/29 03:49:58;;;;;;;7.23;3.17;;;;;;;6.93;40.28;98054.28;5110374;28;20138;-72
2022/01/29 03:52:24;;;;;;;3.37;2.07;;;;;;;6.98;40.23;98062.50;5076153;28;20101;-71
2022/01/29 03:54:50;;;;;;;2.77;2.17;;;;;;;6.96;40.39;98048.66;5093199;28;20039;-71
2022/01/29 03:57:16;;;;;;;5.50;2.10;;;;;;;6.93;40.30;98041.91;5093292;28;20132;-71
2022/01/29 03:59:42;;;;;;;8.37;3.23;;;;;;;7.19;40.04;98062.69;5076754;28;20031;-70
2022/01/29 04:02:08;;;;;;;5.10;2.87;;;;;;;7.02;40.16;98048.78;5092922;28;20051;-71
2022/01/29 04:04:34;;;;;;;7.30;2.80;;;;;;;7.07;40.32;98062.28;5109989;28;20116;-70
2022/01/29 04:07:05;;;;;;;3.50;2.33;;;;;;;6.84;40.30;98020.00;5110212;28;20121;-71
2022/01/29 04:09:32;;;;;;;4.10;2.40;;;;;;;7.13;40.32;98044.91;5093101;28;20038;-71
2022/01/29 04:11:58;;;;;;;4.07;2.37;;;;;;;7.26;40.36;98048.63;5092943;28;20383;-70
2022/01/29 04:14:24;;;;;;;5.27;3.10;;;;;;;7.11;40.41;98047.72;5093624;28;20406;-70
2022/01/29 04:16:50;;;;;;;2.07;1.87;;;;;;;6.90;40.34;98014.03;5076172;28;20468;-70
2022/01/29 04:19:15;;;;;;;7.70;2.97;;;;;;;7.14;40.24;98046.53;5075716;28;20067;-71
2022/01/29 04:21:41;;;;;;;4.27;2.57;;;;;;;6.98;40.21;98020.28;5093003;28;20495;-71
2022/01/29 04:24:07;;;;;;;4.17;2.93;;;;;;;7.30;40.21;98060.47;5109617;28;20134;-70
2022/01/29 04:26:35;;;;;;;5.30;2.60;;;;;;;7.21;40.42;98056.22;5109877;28;20039;-71
2022/01/29 04:29:05;;;;;;;4.43;2.77;;;;;;;7.51;40.24;98055.38;5109591;28;20036;-69
2022/01/29 04:31:40;;;;;;;3.25;2.47;;;;;;;7.27;39.93;98071.41;5108939;28;20499;-70
2022/01/29 04:34:06;;;;;;;8.00;3.33;;;;;;;7.14;40.30;98059.75;5075431;28;20039;-71
2022/01/29 04:36:32;;;;;;;3.30;2.17;;;;;;;7.16;40.24;98066.50;5090455;28;20032;-70
2022/01/29 04:38:58;;;;;;;6.30;2.93;;;;;;;7.17;40.24;98068.16;5073337;28;20134;-70
2022/01/29 04:41:23;;;;;;;4.87;2.20;;;;;;;7.19;40.25;98065.34;5090752;28;20552;-69
2022/01/29 04:43:49;;;;;;;4.07;2.30;;;;;;;7.19;40.37;98057.41;5091571;28;20491;-70
2022/01/29 04:46:15;;;;;;;4.60;2.40;;;;;;;7.23;40.48;98058.69;5059006;28;20415;-69
2022/01/29 04:48:41;;;;;;;6.50;3.23;;;;;;;7.21;40.43;98063.34;5110242;28;20368;-70
2022/01/29 04:51:06;;;;;;;5.77;2.70;;;;;;;7.18;40.50;98053.13;5110425;28;20040;-70
2022/01/29 04:53:32;;;;;;;9.07;3.40;;;;;;;7.19;40.29;98055.59;5075341;28;20123;-70
2022/01/29 04:55:58;;;;;;;4.43;2.30;;;;;;;7.21;40.43;98056.22;5092408;28;20502;-71
2022/01/29 04:58:24;;;;;;;5.57;2.63;;;;;;;7.27;40.42;98060.84;5109418;28;20042;-71
2022/01/29 05:00:50;;;;;;;4.07;2.17;;;;;;;7.31;40.19;98061.28;5092508;28;20074;-71
2022/01/29 05:03:16;;;;;;;4.57;2.40;;;;;;;7.21;40.44;98053.59;5092393;28;20059;-69
2022/01/29 05:05:43;;;;;;;5.57;3.07;;;;;;;7.55;40.37;98075.13;5110356;28;20090;-69
2022/01/29 05:08:11;;;;;;;5.80;3.10;;;;;;;7.23;40.26;98034.94;5108820;28;20054;-70
2022/01/29 05:10:37;;;;;;;7.77;4.23;;;;;;;7.10;40.16;98037.34;5075549;28;20046;-71
2022/01/29 05:13:07;;;;;;;3.53;2.20;;;;;;;7.44;40.35;98074.75;5074911;28;20599;-71
2022/01/29 05:15:39;;;;;;;1.43;1.33;;;;;;;7.58;40.72;98073.97;5092650;28;20503;-71
2022/01/29 05:29:04;;;;;;;0.87;0.87;;;;;;;7.25;40.71;98031.13;5094189;28;20046;-70
2022/01/29 05:31:30;;;;;;;2.90;1.67;;;;;;;7.37;40.30;98064.06;5057944;28;20533;-69
2022/01/29 05:33:56;;;;;;;3.77;2.17;;;;;;;7.59;40.33;98070.31;5074630;28;20036;-69
2022/01/29 05:36:22;;;;;;;3.47;2.13;;;;;;;7.41;40.29;98067.97;5108577;28;20450;-69
2022/01/29 05:38:48;;;;;;;4.47;2.33;;;;;;;7.52;40.24;98069.41;5091845;28;20032;-69
2022/01/29 05:41:14;;;;;;;4.53;2.30;;;;;;;7.61;40.03;98073.63;5109777;28;20058;-69
2022/01/29 05:43:41;;;;;;;4.10;2.73;;;;;;;7.69;40.16;98081.47;5059773;28;20047;-71
2022/01/29 05:46:07;;;;;;;5.33;2.23;;;;;;;7.55;40.22;98082.25;5078523;28;20039;-70
2022/01/29 05:48:33;;;;;;;3.53;2.20;;;;;;;7.56;40.11;98086.53;5113781;28;20089;-69
2022/01/29 05:50:59;;;;;;;2.07;1.73;;;;;;;7.59;40.36;98080.88;5095446;28;20117;-70
2022/01/29 05:53:24;;;;;;;4.60;2.40;;;;;;;7.60;40.06;98077.25;5078380;28;20134;-70
2022/01/29 05:55:50;;;;;;;5.47;2.83;;;;;;;7.66;39.66;98087.94;5112561;28;20052;-71
2022/01/29 05:58:16;;;;;;;6.10;2.60;;;;;;;7.68;39.67;98093.88;5112408;28;20453;-71
2022/01/29 06:00:42;;;;;;;2.53;1.83;;;;;;;7.67;39.68;98089.56;5077997;28;20545;-72
2022/01/29 06:03:09;;;;;;;3.03;1.50;;;;;;;7.91;39.94;98094.66;5077828;28;20075;-72
2022/01/29 06:05:35;;;;;;;3.07;1.83;;;;;;;7.80;39.82;98096.91;5105164;28;20051;-72
2022/01/29 06:08:02;;;;;;;3.73;2.53;;;;;;;7.84;39.84;98095.56;5063556;28;20039;-73
2022/01/29 06:10:28;;;;;;;3.73;1.80;;;;;;;7.94;39.67;98094.31;5046769;28;20068;-73
2022/01/29 06:13:11;;;;;;;5.27;3.10;;;;;;;8.13;39.38;98066.53;5077729;28;20589;-69
2022/01/29 06:15:40;;;;;;;4.63;2.70;;;;;;;7.84;39.74;98048.00;5074526;28;20147;-70
2022/01/29 06:18:07;;;;;;;6.07;3.30;;;;;;;8.04;39.60;98100.16;5081735;28;20051;-68
2022/01/29 06:20:33;;;;;;;5.80;2.80;;;;;;;7.83;39.62;98092.09;5077647;28;20507;-69
2022/01/29 06:22:59;;;;;;;3.70;2.23;;;;;;;7.67;39.61;98064.97;5047337;28;20132;-68
2022/01/29 06:25:24;;;;;;;4.10;2.80;;;;;;;7.85;39.61;98092.75;5076736;28;20104;-70
2022/01/29 06:27:50;;;;;;;4.27;2.83;;;;;;;7.82;39.60;98092.25;5064062;28;20131;-69
2022/01/29 06:30:16;;;;;;;4.30;3.13;;;;;;;7.64;39.62;98066.13;5099197;28;20420;-70
2022/01/29 06:32:42;;;;;;;3.53;2.13;;;;;;;7.82;40.01;98097.56;5093579;28;20498;-70
2022/01/29 06:35:09;;;;;;;5.70;3.50;;;;;;;7.98;39.69;98102.72;5067809;28;20046;-70
2022/01/29 06:37:35;;;;;;;6.17;3.33;;;;;;;7.92;39.75;98106.03;5088941;28;20056;-71
2022/01/29 06:40:01;;;;;;;6.07;3.33;;;;;;;7.86;39.74;98097.00;5072342;28;20388;-68
2022/01/29 06:42:28;;;;;;;4.17;2.43;;;;;;;7.82;39.71;98094.91;5098678;28;20099;-71
2022/01/29 06:44:54;;;;;;;4.60;2.83;;;;;;;7.88;39.81;98110.88;5060696;28;20052;-69
2022/01/29 06:47:20;;;;;;;6.30;3.30;;;;;;;7.92;39.51;98112.16;5049470;28;20043;-71
2022/01/29 06:49:46;;;;;;;7.63;3.60;;;;;;;7.72;39.51;98087.22;5062265;28;20555;-72
2022/01/29 06:52:12;;;;;;;4.87;2.80;;;;;;;7.67;39.86;98080.84;5092699;28;20052;-70
2022/01/29 06:54:38;;;;;;;7.67;3.50;;;;;;;7.85;39.71;98113.88;5067336;28;20039;-71
2022/01/29 06:57:04;;;;;;;3.80;2.40;;;;;;;8.00;39.72;98133.25;5075066;28;20563;-71
2022/01/29 06:59:29;;;;;;;5.37;2.50;;;;;;;7.95;39.72;98125.00;5094248;28;20050;-67
2022/01/29 07:01:55;;;;;;;6.87;3.00;;;;;;;7.94;39.82;98127.84;5090810;28;20048;-73
2022/01/29 07:04:21;;;;;;;3.63;2.47;;;;;;;7.49;39.79;98046.78;5074479;28;20078;-70
2022/01/29 07:06:47;;;;;;;8.30;4.23;;;;;;;8.02;39.51;98122.47;5095140;28;20499;-69
2022/01/29 07:09:13;;;;;;;3.43;2.40;;;;;;;7.89;39.67;98091.38;5061008;28;20032;-72
2022/01/29 07:11:41;;;;;;;8.47;3.60;;;;;;;8.14;39.38;98124.53;5077898;28;20044;-72
2022/01/29 07:14:07;;;;;;;8.30;3.60;;;;;;;8.14;39.68;98123.69;5065149;28;20071;-70
2022/01/29 07:16:35;;;;;;;9.03;4.37;;;;;;;8.26;39.48;98093.19;5047916;28;20113;-72
2022/01/29 07:19:01;;;;;;;5.20;2.60;;;;;;;8.10;39.87;98117.13;5063377;28;20464;-69
2022/01/29 07:21:27;;;;;;;10.80;4.07;;;;;;;7.99;39.93;98122.84;5080764;28;20059;-68
2022/01/29 07:23:53;;;;;;;3.87;2.30;;;;;;;7.92;40.04;98113.97;5060045;28;20044;-70
2022/01/29 07:26:19;;;;;;;6.53;3.33;;;;;;;7.86;40.11;98089.09;5046318;28;20517;-69
2022/01/29 07:28:45;;;;;;;3.47;2.17;;;;;;;8.02;40.02;98117.19;5064044;28;20121;-71
2022/01/29 07:31:11;;;;;;;8.93;2.93;;;;;;;8.27;39.93;98130.03;5053694;28;20054;-71
2022/01/29 07:33:37;;;;;;;9.10;4.33;;;;;;;8.09;39.78;98118.94;5043724;28;20066;-71
2022/01/29 07:36:03;;;;;;;6.33;3.23;;;;;;;8.29;39.85;98132.50;5067000;28;20466;-71
2022/01/29 07:38:29;;;;;;;7.57;3.70;;;;;;;8.17;39.83;98125.97;5048909;28;20043;-70
2022/01/29 07:40:55;;;;;;;5.77;2.97;;;;;;;8.24;39.79;98145.47;5064180;28;20044;-70
2022/01/29 07:43:21;;;;;;;8.20;3.63;;;;;;;8.18;39.83;98139.03;5045262;28;20035;-72
2022/01/29 07:45:46;;;;;;;9.10;4.77;;;;;;;8.17;39.95;98137.38;5045913;28;20072;-70
2022/01/29 07:48:13;;;;;;;6.63;3.43;;;;;;;8.18;39.89;98128.44;5062907;28;20056;-71
2022/01/29 07:50:38;;;;;;;8.57;4.10;;;;;;;8.14;39.89;98128.97;5047384;28;20036;-70
2022/01/29 07:53:05;;;;;;;9.30;4.17;;;;;;;8.39;39.67;98135.72;5051791;28;20044;-70
2022/01/29 07:55:32;;;;;;;7.77;3.87;;;;;;;8.28;39.86;98107.06;5063749;28;20050;-70
2022/01/29 07:58:01;;;;;;;5.77;3.40;;;;;;;8.49;39.91;98125.69;5072248;28;20065;-69
2022/01/29 08:00:27;;;;;;;9.10;3.93;;;;;;;8.41;39.97;98128.44;5089419;28;20040;-70
2022/01/29 08:02:53;;;;;;;7.53;4.17;;;;;;;8.33;39.92;98112.66;5072817;28;20116;-71
2022/01/29 08:05:19;;;;;;;10.73;4.00;;;;;;;8.47;39.68;98123.22;5075972;28;20039;-70
2022/01/29 08:07:45;;;;;;;7.87;3.80;;;;;;;8.47;39.83;98123.22;5104804;28;20461;-70
2022/01/29 08:10:11;;;;;;;9.23;4.47;;;;;;;8.46;39.84;98111.00;5075787;28;20055;-69
2022/01/29 08:12:37;;;;;;;8.13;4.40;;;;;;;8.59;39.92;98132.34;5059373;28;20047;-70
2022/01/29 08:15:04;;;;;;;10.13;4.93;;;;;;;8.87;39.73;98129.06;5055359;28;20389;-70
2022/01/29 08:17:30;;;;;;;10.07;5.27;;;;;;;8.42;39.94;98095.69;5054916;28;20491;-70
2022/01/29 08:19:57;;;;;;;11.83;5.57;;;;;;;8.67;39.57;98126.16;5072465;28;20162;-70
2022/01/29 08:22:24;;;;;;;10.47;5.40;;;;;;;8.66;39.55;98113.91;5055523;28;20044;-70
2022/01/29 08:24:52;;;;;;;11.93;5.67;;;;;;;8.79;39.68;98124.69;5071187;28;20040;-69
2022/01/29 08:27:18;;;;;;;10.00;4.80;;;;;;;8.88;39.72;98123.59;5088391;28;20059;-71
2022/01/29 08:29:44;;;;;;;11.17;6.00;;;;;;;8.78;39.61;98120.41;5088903;28;20055;-70
2022/01/29 08:32:11;;;;;;;11.93;5.57;;;;;;;8.86;39.64;98120.31;5061819;28;20047;-70
2022/01/29 08:34:39;;;;;;;12.40;5.30;;;;;;;8.94;39.62;98114.91;5082866;28;20455;-69
2022/01/29 08:37:05;;;;;;;11.27;5.03;;;;;;;9.03;39.62;98131.50;5087452;28;20407;-70
2022/01/29 08:39:32;;;;;;;10.93;4.60;;;;;;;9.22;39.51;98134.41;5052770;28;20073;-70
2022/01/29 08:41:59;;;;;;;11.60;5.90;;;;;;;8.88;39.63;98096.28;5077069;28;20090;-70
2022/01/29 08:44:25;;;;;;;10.53;5.83;;;;;;;9.07;39.70;98133.59;5069294;28;20055;-69
2022/01/29 08:46:51;;;;;;;14.77;6.63;;;;;;;8.87;39.39;98086.72;5092261;28;20051;-70
2022/01/29 08:49:18;;;;;;;12.37;6.40;;;;;;;9.12;39.61;98112.69;5069606;28;20048;-69
2022/01/29 08:51:44;;;;;;;9.43;5.60;;;;;;;9.20;39.51;98125.81;5070331;28;20466;-70
2022/01/29 08:54:10;;;;;;;16.93;6.67;;;;;;;9.02;39.64;98112.16;5054318;28;20038;-69
2022/01/29 08:56:36;;;;;;;13.30;5.93;;;;;;;9.12;39.57;98133.88;5051228;28;20602;-70
2022/01/29 08:59:02;;;;;;;15.07;6.77;;;;;;;9.21;39.91;98114.22;5042802;28;20043;-69
2022/01/29 09:01:28;;;;;;;13.40;5.70;;;;;;;9.06;39.81;98086.94;5089620;28;20451;-69
2022/01/29 09:03:54;;;;;;;14.20;6.20;;;;;;;9.26;39.66;98135.69;5055401;28;20082;-70
2022/01/29 09:06:20;;;;;;;15.40;6.70;;;;;;;9.23;39.64;98130.75;5087914;28;20078;-69
2022/01/29 09:08:49;;;;;;;14.77;6.97;;;;;;;9.31;39.40;98129.81;5038486;28;20044;-69
2022/01/29 09:11:15;;;;;;;20.37;7.90;;;;;;;9.27;39.33;98102.88;5103020;28;20830;-68
2022/01/29 09:13:41;;;;;;;14.60;7.00;;;;;;;9.39;39.43;98135.00;5074580;28;20043;-71
2022/01/29 09:16:07;;;;;;;12.03;6.00;;;;;;;9.37;39.46;98132.53;5073914;28;20062;-76
2022/01/29 09:18:33;;;;;;;13.33;5.77;;;;;;;9.38;39.51;98133.38;5076475;28;20407;-71
2022/01/29 09:20:59;;;;;;;17.10;7.20;;;;;;;9.27;39.40;98116.13;5061670;28;20163;-67
2022/01/29 09:23:25;;;;;;;18.07;7.87;;;;;;;9.60;39.29;98159.72;5112761;28;20074;-78
2022/01/29 09:25:51;;;;;;;22.33;8.30;;;;;;;9.54;39.47;98155.16;5078921;28;20060;-74
2022/01/29 09:28:17;;;;;;;22.63;9.63;;;;;;;9.61;39.32;98148.09;5074920;28;20051;-76
2022/01/29 09:30:44;;;;;;;14.80;6.77;;;;;;;9.72;39.28;98144.94;5041731;28;20036;-75
2022/01/29 09:33:14;;;;;;;14.10;6.17;;;;;;;9.76;39.39;98150.69;5080461;28;20115;-74
2022/01/29 09:35:40;;;;;;;12.05;5.38;;;;;;;9.59;39.39;98146.66;5113042;28;20569;-76
2022/01/29 09:38:07;;;;;;;19.87;6.57;;;;;;;9.83;39.22;98152.41;5078194;28;20130;-66
2022/01/29 09:40:34;;;;;;;23.20;7.23;;;;;;;9.74;39.33;98148.25;5075125;28;20051;-66
2022/01/29 09:43:01;;;;;;;13.20;5.70;;;;;;;9.63;39.50;98167.28;5094852;28;20568;-67
2022/01/29 09:45:27;;;;;;;13.43;6.37;;;;;;;9.51;39.21;98141.47;5112327;28;20096;-65
2022/01/29 09:48:01;;;;;;;16.37;7.03;;;;;;;9.65;39.34;98161.78;5107722;28;20039;-65
2022/01/29 09:50:29;;;;;;;20.47;6.27;;;;;;;9.93;39.21;98154.75;5096335;28;20515;-66
2022/01/29 09:52:55;;;;;;;16.97;6.90;;;;;;;9.69;39.38;98165.69;5112392;28;20055;-65
2022/01/29 09:55:21;;;;;;;18.07;6.70;;;;;;;9.73;39.52;98175.75;5111759;28;20040;-64
2022/01/29 09:57:47;;;;;;;14.47;5.90;;;;;;;9.66;39.48;98161.59;5111389;28;20062;-66
2022/01/29 10:00:13;;;;;;;21.33;7.23;;;;;;;9.82;39.39;98157.91;5087238;28;20415;-66
2022/01/29 10:02:39;;;;;;;21.17;8.43;;;;;;;9.75;39.49;98157.00;5098268;28;20048;-66
2022/01/29 10:05:05;;;;;;;14.63;6.20;;;;;;;9.73;39.74;98154.53;5096240;28;20530;-65
2022/01/29 10:07:31;;;;;;;19.07;6.73;;;;;;;9.91;39.44;98149.63;5099603;28;20588;-65
2022/01/29 10:09:58;;;;;;;11.10;4.93;;;;;;;9.83;39.65;98130.38;5077680;28;20484;-66
2022/01/29 10:12:30;;;;;;;14.20;5.20;;;;;;;10.04;39.27;98109.97;5091947;28;20093;-66
2022/01/29 10:15:01;;;;;;;14.67;5.83;;;;;;;10.23;39.39;98145.66;5074612;28;20122;-66
2022/01/29 10:17:55;;;;;;;17.80;6.50;;;;;;;10.54;38.94;98156.72;5091158;28;20063;-67
2022/01/29 10:20:24;;;;;;;12.47;4.63;;;;;;;10.36;39.29;98160.84;5094023;28;20047;-66
2022/01/29 10:22:51;;;;;;;11.10;5.10;;;;;;;10.37;39.32;98171.28;5107116;28;20048;-66
2022/01/29 10:25:19;;;;;;;15.97;6.47;;;;;;;10.48;39.33;98154.84;5104231;28;20044;-66
2022/01/29 10:28:07;;;;;;;15.07;5.17;;;;;;;10.74;39.04;98167.44;5112339;28;20043;-64
2022/01/29 10:30:57;;;;;;;14.53;5.77;;;;;;;10.76;38.82;98166.25;5110192;28;20090;-65
2022/01/29 10:33:38;;;;;;;17.73;5.67;;;;;;;10.72;39.26;98162.34;5091819;28;20553;-65
2022/01/29 10:36:14;;;;;;;19.73;5.57;;;;;;;10.78;39.18;98160.75;5110235;28;20043;-65
2022/01/29 10:38:40;;;;;;;13.43;5.33;;;;;;;10.26;39.63;98158.53;5110946;28;20063;-65
2022/01/29 10:41:22;;;;;;;19.17;6.33;;;;;;;10.70;39.54;98166.22;5111331;28;20082;-66
2022/01/29 10:44:17;;;;;;;26.27;8.40;;;;;;;10.67;39.04;98127.56;5110799;28;20055;-65
2022/01/29 10:46:54;;;;;;;26.33;7.17;;;;;;;10.76;39.11;98144.19;5110821;28;20056;-65
2022/01/29 10:49:31;;;;;;;18.93;6.40;;;;;;;10.81;39.23;98147.09;5092905;28;20138;-65
2022/01/29 10:51:58;;;;;;;25.10;6.27;;;;;;;10.67;39.46;98150.69;5110626;28;20040;-66
2022/01/29 10:54:24;;;;;;;23.67;6.87;;;;;;;10.52;39.54;98149.97;5111736;28;20564;-65
2022/01/29 10:57:01;;;;;;;30.90;6.80;;;;;;;10.93;39.31;98146.31;5109453;28;20036;-66
2022/01/29 10:59:29;;;;;;;26.03;5.87;;;;;;;10.77;39.43;98148.47;5109975;28;20540;-68
2022/01/29 11:01:58;;;;;;;42.43;8.10;;;;;;;10.83;39.30;98155.66;5077080;28;20512;-66
2022/01/29 11:04:27;;;;;;;26.97;6.63;;;;;;;10.51;39.62;98119.94;5089688;28;20040;-65
2022/01/29 11:06:54;;;;;;;38.27;7.30;;;;;;;10.76;39.49;98158.28;5097050;28;20035;-65
2022/01/29 11:09:21;;;;;;;37.43;7.70;;;;;;;10.87;39.27;98155.06;5110025;28;20043;-67
2022/01/29 11:11:47;;;;;;;37.23;7.80;;;;;;;10.71;39.42;98147.44;5077790;28;20932;-67
2022/01/29 11:14:16;;;;;;;36.40;6.70;;;;;;;10.75;39.31;98116.00;5095373;28;20143;-67
2022/01/29 11:16:43;;;;;;;36.57;6.87;;;;;;;10.86;39.31;98141.97;5049770;28;20120;-68
2022/01/29 11:19:10;;;;;;;42.53;6.83;;;;;;;10.76;39.44;98144.19;5077812;28;20127;-67
2022/01/29 11:21:36;;;;;;;37.33;7.73;;;;;;;11.04;39.11;98155.59;5084785;28;20406;-68
2022/01/29 11:24:06;;;;;;;37.43;6.53;;;;;;;11.05;39.33;98147.44;5084234;28;20138;-69
2022/01/29 11:26:32;;;;;;;40.00;7.23;;;;;;;10.89;39.08;98141.59;5080766;28;20112;-66
2022/01/29 11:29:25;;;;;;;48.03;7.87;;;;;;;11.13;38.65;98123.31;5092913;28;20873;-66
2022/01/29 11:32:25;;;;;;;40.10;7.60;;;;;;;11.32;38.92;98151.00;5091928;28;20144;-67
2022/01/29 11:35:16;;;;;;;55.57;8.20;;;;;;;11.25;39.12;98152.81;5062392;28;20044;-65
2022/01/29 11:38:03;;;;;;;39.25;7.00;;;;;;;11.31;38.67;98149.38;5096905;28;20225;-64
2022/01/29 11:40:37;;;;;;;50.10;7.57;;;;;;;11.16;39.09;98138.88;5096268;28;20161;-65
2022/01/29 11:43:12;;;;;;;39.17;7.17;;;;;;;10.96;39.13;98108.72;5078493;28;20051;-65
2022/01/29 11:45:42;;;;;;;47.03;7.43;;;;;;;10.67;39.58;98145.38;5094471;28;20139;-66
2022/01/29 11:48:37;;;;;;;59.10;7.47;;;;;;;11.22;39.28;98155.88;5092847;28;20144;-65
2022/01/29 11:51:05;;;;;;;50.93;7.63;;;;;;;10.95;40.14;98148.78;5078317;28;20108;-68
2022/01/29 11:53:49;;;;;;;56.97;8.50;;;;;;;11.22;39.29;98148.72;5115257;27;20059;-65